Time;durP1;ratioP1;P1;durP2;ratioP2;P2;SDS_P1;SDS_P2;PMS_P1;PMS_P2;Temp;Humidity;BMP_temperature;BMP_pressure;BME280_temperature;BME280_humidity;BME280_pressure;Samples;Min_cycle;Max_cycle;Signal;HPM_P1;HPM_P2
2022/03/29 00:00:38;;;;;;;18.02;9.23;;;;;;;;;;5031060;28;20045;-75
2022/03/29 00:03:08;;;;;;;17.35;9.88;;;;;;;;;;5021929;28;20624;-75
2022/03/29 00:05:35;;;;;;;20.67;10.07;;;;;;;;;;5036490;28;20422;-75
2022/03/29 00:08:01;;;;;;;14.93;9.60;;;;;;;;;;5022157;28;20030;-75
2022/03/29 00:10:27;;;;;;;19.17;10.63;;;;;;;;;;5016799;28;20181;-75
2022/03/29 00:12:55;;;;;;;19.43;9.67;;;;;;;;;;5020321;28;20455;-75
2022/03/29 00:15:23;;;;;;;18.00;10.03;;;;;;;;;;5015415;28;20184;-75
2022/03/29 00:17:49;;;;;;;20.67;10.83;;;;;;;;;;5018732;28;20056;-75
2022/03/29 00:20:19;;;;;;;19.40;10.07;;;;;;;;;;5020938;28;20322;-75
2022/03/29 00:22:46;;;;;;;20.83;10.67;;;;;;;;;;5021161;28;20056;-75
2022/03/29 00:25:15;;;;;;;17.70;9.60;;;;;;;;;;5017193;28;20108;-74
2022/03/29 00:27:42;;;;;;;25.83;11.77;;;;;;;;;;5020161;28;20041;-77
2022/03/29 00:30:11;;;;;;;25.67;11.07;;;;;;;;;;5017872;28;20045;-74
2022/03/29 00:32:39;;;;;;;18.17;10.23;;;;;;;;;;5018551;28;20038;-74
2022/03/29 00:35:06;;;;;;;20.30;10.30;;;;;;;;;;5019830;28;20018;-75
2022/03/29 00:37:32;;;;;;;18.80;10.10;;;;;;;;;;5020711;28;20036;-76
2022/03/29 00:39:58;;;;;;;19.10;10.17;;;;;;;;;;5025423;28;20053;-75
2022/03/29 00:42:24;;;;;;;16.53;9.57;;;;;;;;;;5027270;28;20136;-76
2022/03/29 00:44:49;;;;;;;23.67;11.27;;;;;;;;;;5025319;28;20036;-75
2022/03/29 00:47:15;;;;;;;16.60;9.83;;;;;;;;;;5023353;28;20124;-75
2022/03/29 00:49:41;;;;;;;29.53;12.57;;;;;;;;;;5018817;28;20037;-76
2022/03/29 00:52:07;;;;;;;24.13;10.10;;;;;;;;;;5016377;28;20486;-76
2022/03/29 00:54:43;;;;;;;19.90;10.87;;;;;;;;;;5019832;28;20056;-76
2022/03/29 00:57:11;;;;;;;19.27;10.57;;;;;;;;;;5017191;28;20088;-76
2022/03/29 00:59:42;;;;;;;16.83;10.57;;;;;;;;;;5021914;28;20037;-75
2022/03/29 01:02:07;;;;;;;18.53;10.10;;;;;;;;;;5016827;28;20486;-76
2022/03/29 01:04:33;;;;;;;23.53;10.57;;;;;;;;;;5014611;28;20072;-76
2022/03/29 01:06:59;;;;;;;22.63;10.67;;;;;;;;;;5015547;28;20034;-75
2022/03/29 01:09:26;;;;;;;23.60;11.27;;;;;;;;;;5036130;28;20029;-74
2022/03/29 01:11:52;;;;;;;18.10;9.80;;;;;;;;;;5015772;28;20030;-75
2022/03/29 01:14:23;;;;;;;17.10;10.23;;;;;;;;;;5015520;28;20054;-75
2022/03/29 01:19:36;;;;;;;20.40;10.30;;;;;;;;;;5016660;28;20402;-75
2022/03/29 01:22:03;;;;;;;22.57;10.40;;;;;;;;;;5023867;28;20029;-75
2022/03/29 01:24:29;;;;;;;19.20;9.93;;;;;;;;;;5020259;28;20310;-75
2022/03/29 01:26:59;;;;;;;18.70;9.87;;;;;;;;;;5034620;28;20108;-75
2022/03/29 01:29:26;;;;;;;18.90;9.00;;;;;;;;;;5039360;28;20067;-75
2022/03/29 01:31:52;;;;;;;18.43;9.70;;;;;;;;;;5004319;28;20037;-75
2022/03/29 01:34:21;;;;;;;16.00;8.73;;;;;;;;;;5039345;28;20048;-75
2022/03/29 01:36:48;;;;;;;16.50;10.30;;;;;;;;;;5024710;28;20125;-76
2022/03/29 01:39:14;;;;;;;23.00;10.17;;;;;;;;;;5021147;28;20069;-75
2022/03/29 01:41:40;;;;;;;18.37;9.60;;;;;;;;;;5021738;28;20045;-74
2022/03/29 01:44:06;;;;;;;22.37;9.70;;;;;;;;;;5024869;28;20037;-76
2022/03/29 01:46:32;;;;;;;16.73;8.97;;;;;;;;;;5022725;28;20497;-75
2022/03/29 01:48:59;;;;;;;22.20;10.77;;;;;;;;;;5038618;28;20061;-76
2022/03/29 01:51:25;;;;;;;21.00;10.17;;;;;;;;;;5020297;28;20045;-74
2022/03/29 01:53:59;;;;;;;18.10;9.30;;;;;;;;;;5021505;28;20029;-74
2022/03/29 01:56:29;;;;;;;18.73;8.83;;;;;;;;;;5021707;28;20545;-75
2022/03/29 01:58:56;;;;;;;19.70;10.33;;;;;;;;;;5017655;28;20040;-75
2022/03/29 02:01:22;;;;;;;19.03;9.93;;;;;;;;;;5020438;28;20060;-75
2022/03/29 02:03:48;;;;;;;17.97;9.97;;;;;;;;;;5021812;28;20104;-75
2022/03/29 02:06:13;;;;;;;19.20;9.90;;;;;;;;;;5040994;28;20061;-75
2022/03/29 02:08:39;;;;;;;21.77;9.80;;;;;;;;;;5037160;28;20032;-75
2022/03/29 02:11:04;;;;;;;16.90;9.97;;;;;;;;;;5021094;28;20045;-75
2022/03/29 02:13:30;;;;;;;22.63;11.00;;;;;;;;;;5025153;28;20112;-75
2022/03/29 02:15:55;;;;;;;19.10;10.10;;;;;;;;;;5019273;28;20056;-75
2022/03/29 02:18:21;;;;;;;23.03;11.70;;;;;;;;;;5019625;28;20060;-75
2022/03/29 02:20:47;;;;;;;18.70;9.00;;;;;;;;;;5017206;28;20509;-75
2022/03/29 02:23:15;;;;;;;19.07;10.00;;;;;;;;;;5036457;28;20128;-75
2022/03/29 02:25:42;;;;;;;16.93;9.47;;;;;;;;;;5016020;28;20495;-74
2022/03/29 02:28:08;;;;;;;29.53;10.50;;;;;;;;;;5019747;28;20131;-74
2022/03/29 02:30:35;;;;;;;23.23;11.07;;;;;;;;;;5022246;28;20072;-75
2022/03/29 02:33:02;;;;;;;19.83;10.67;;;;;;;;;;5021593;28;20038;-75
2022/03/29 02:35:28;;;;;;;19.73;10.00;;;;;;;;;;5023283;28;20136;-76
2022/03/29 02:37:53;;;;;;;20.50;10.20;;;;;;;;;;5040730;28;20025;-74
2022/03/29 02:40:19;;;;;;;17.77;10.10;;;;;;;;;;5045012;28;20033;-76
2022/03/29 02:42:53;;;;;;;19.93;10.33;;;;;;;;;;5034239;28;20033;-74
2022/03/29 02:45:22;;;;;;;20.93;10.77;;;;;;;;;;5019383;28;20121;-74
2022/03/29 02:47:51;;;;;;;20.87;9.97;;;;;;;;;;5020905;28;20029;-74
2022/03/29 02:50:17;;;;;;;23.73;11.00;;;;;;;;;;5014668;28;20117;-74
2022/03/29 02:53:02;;;;;;;26.90;12.37;;;;;;;;;;5013972;28;20095;-73
2022/03/29 02:55:30;;;;;;;22.67;10.00;;;;;;;;;;5012066;28;20394;-75
2022/03/29 02:57:57;;;;;;;19.10;10.47;;;;;;;;;;5021649;28;20037;-75
2022/03/29 03:00:23;;;;;;;32.63;12.97;;;;;;;;;;5018231;28;20148;-77
2022/03/29 03:02:51;;;;;;;22.60;10.90;;;;;;;;;;5020960;28;20398;-75
2022/03/29 03:05:19;;;;;;;17.47;11.00;;;;;;;;;;5016858;28;20025;-75
2022/03/29 03:07:46;;;;;;;22.27;10.63;;;;;;;;;;5020678;28;20029;-75
2022/03/29 03:10:12;;;;;;;24.23;11.13;;;;;;;;;;5017532;28;20557;-75
2022/03/29 03:12:43;;;;;;;21.30;10.30;;;;;;;;;;5020611;28;20037;-75
2022/03/29 03:15:12;;;;;;;19.75;11.60;;;;;;;;;;4969573;28;1411955;-75
2022/03/29 03:17:37;;;;;;;20.47;11.17;;;;;;;;;;5020380;28;20132;-76
2022/03/29 03:20:05;;;;;;;23.60;10.97;;;;;;;;;;5023166;28;20471;-75
2022/03/29 03:22:31;;;;;;;23.00;10.47;;;;;;;;;;5018999;28;20377;-77
2022/03/29 03:24:57;;;;;;;20.67;10.40;;;;;;;;;;5023984;28;20063;-76
2022/03/29 03:27:22;;;;;;;20.23;10.20;;;;;;;;;;5021372;28;20460;-75
2022/03/29 03:29:48;;;;;;;17.17;9.57;;;;;;;;;;5023231;28;20036;-74
2022/03/29 03:32:14;;;;;;;20.67;10.67;;;;;;;;;;5018515;28;20406;-75
2022/03/29 03:34:41;;;;;;;20.97;9.80;;;;;;;;;;5020942;28;20116;-75
2022/03/29 03:37:07;;;;;;;20.37;9.80;;;;;;;;;;5015147;28;20029;-75
2022/03/29 03:39:34;;;;;;;18.13;10.03;;;;;;;;;;5017842;28;20128;-74
2022/03/29 03:42:01;;;;;;;15.87;9.23;;;;;;;;;;5021584;28;20061;-75
2022/03/29 03:44:27;;;;;;;21.30;9.67;;;;;;;;;;5015770;28;20030;-76
2022/03/29 03:46:52;;;;;;;19.43;10.37;;;;;;;;;;5023812;28;20083;-77
2022/03/29 03:49:18;;;;;;;18.77;11.03;;;;;;;;;;5017482;28;20029;-74
2022/03/29 03:51:43;;;;;;;18.13;9.80;;;;;;;;;;5022401;28;20353;-75
2022/03/29 03:54:09;;;;;;;19.13;11.43;;;;;;;;;;5037288;28;20025;-75
2022/03/29 03:56:35;;;;;;;21.17;10.23;;;;;;;;;;5017381;28;20063;-75
2022/03/29 03:59:00;;;;;;;23.00;11.53;;;;;;;;;;5022038;28;20069;-75
2022/03/29 04:01:26;;;;;;;21.40;10.57;;;;;;;;;;5015688;28;20029;-76
2022/03/29 04:03:51;;;;;;;23.73;11.13;;;;;;;;;;5013886;28;20327;-75
2022/03/29 04:06:17;;;;;;;27.90;12.90;;;;;;;;;;5022162;28;20029;-75
2022/03/29 04:08:42;;;;;;;23.17;10.80;;;;;;;;;;5022672;28;20375;-75
2022/03/29 04:11:08;;;;;;;22.63;10.87;;;;;;;;;;5017929;28;20044;-75
2022/03/29 04:13:34;;;;;;;21.57;11.83;;;;;;;;;;5022613;28;20029;-75
2022/03/29 04:16:01;;;;;;;19.27;10.93;;;;;;;;;;5021971;28;20068;-76
2022/03/29 04:18:26;;;;;;;21.33;11.07;;;;;;;;;;5017485;28;20030;-74
2022/03/29 04:20:53;;;;;;;22.90;10.60;;;;;;;;;;5014164;28;20128;-75
2022/03/29 04:23:19;;;;;;;23.40;11.27;;;;;;;;;;5021028;28;20037;-74
2022/03/29 04:25:44;;;;;;;17.23;10.13;;;;;;;;;;5021759;28;20039;-75
2022/03/29 04:28:10;;;;;;;17.67;9.23;;;;;;;;;;5017213;28;20502;-75
2022/03/29 04:30:35;;;;;;;25.07;10.50;;;;;;;;;;5021429;28;20026;-74
2022/03/29 04:33:01;;;;;;;19.87;10.50;;;;;;;;;;5015189;28;20037;-74
2022/03/29 04:35:27;;;;;;;23.60;11.17;;;;;;;;;;5021933;28;20083;-75
2022/03/29 04:37:53;;;;;;;22.90;10.37;;;;;;;;;;5014871;28;20044;-74
2022/03/29 04:40:20;;;;;;;23.73;10.90;;;;;;;;;;5021545;28;20033;-75
2022/03/29 04:42:48;;;;;;;21.13;10.93;;;;;;;;;;5016529;28;20474;-74
2022/03/29 04:45:14;;;;;;;20.93;10.00;;;;;;;;;;5022275;28;20064;-73
2022/03/29 04:47:42;;;;;;;24.30;10.63;;;;;;;;;;5014864;28;20105;-74
2022/03/29 04:50:12;;;;;;;20.97;10.67;;;;;;;;;;5025117;28;20470;-74
2022/03/29 04:52:39;;;;;;;23.43;10.63;;;;;;;;;;5021644;28;20442;-75
2022/03/29 04:55:07;;;;;;;21.07;11.17;;;;;;;;;;5016368;28;20022;-75
2022/03/29 04:57:34;;;;;;;28.83;11.20;;;;;;;;;;5021930;28;20055;-75
2022/03/29 05:00:01;;;;;;;18.40;10.20;;;;;;;;;;5015136;28;20072;-74
2022/03/29 05:02:26;;;;;;;20.00;10.93;;;;;;;;;;5015683;28;20038;-75
2022/03/29 05:04:52;;;;;;;18.67;11.63;;;;;;;;;;5019952;28;20514;-74
2022/03/29 05:07:18;;;;;;;24.00;10.30;;;;;;;;;;5018064;28;20430;-73
2022/03/29 05:09:43;;;;;;;25.50;10.93;;;;;;;;;;5009288;28;20486;-73
2022/03/29 05:12:09;;;;;;;21.80;10.83;;;;;;;;;;5019104;28;20053;-74
2022/03/29 05:14:36;;;;;;;25.23;10.73;;;;;;;;;;5015583;28;20081;-74
2022/03/29 05:17:02;;;;;;;22.80;11.77;;;;;;;;;;5021891;28;20378;-74
2022/03/29 05:19:28;;;;;;;20.93;11.30;;;;;;;;;;5020919;28;20068;-74
2022/03/29 05:21:53;;;;;;;22.23;11.03;;;;;;;;;;5021268;28;20182;-75
2022/03/29 05:24:19;;;;;;;22.27;11.23;;;;;;;;;;5015574;28;20092;-74
2022/03/29 05:26:45;;;;;;;22.97;11.93;;;;;;;;;;5019943;28;20029;-74
2022/03/29 05:29:11;;;;;;;24.27;11.07;;;;;;;;;;5017947;28;20128;-75
2022/03/29 05:31:38;;;;;;;23.43;10.80;;;;;;;;;;5016650;28;20096;-73
2022/03/29 05:34:04;;;;;;;26.57;11.77;;;;;;;;;;5004641;28;20037;-73
2022/03/29 05:36:31;;;;;;;23.67;11.60;;;;;;;;;;5009134;28;20063;-73
2022/03/29 05:38:57;;;;;;;24.40;11.10;;;;;;;;;;5003790;28;20030;-72
2022/03/29 05:41:22;;;;;;;23.73;11.87;;;;;;;;;;4997102;28;20112;-73
2022/03/29 05:43:49;;;;;;;24.77;10.83;;;;;;;;;;4993224;28;20402;-74
2022/03/29 05:49:00;;;;;;;28.13;11.90;;;;;;;;;;5015333;28;20048;-75
2022/03/29 05:51:29;;;;;;;23.27;11.43;;;;;;;;;;5008164;28;20030;-73
2022/03/29 05:53:56;;;;;;;20.10;11.07;;;;;;;;;;5016258;28;20041;-75
2022/03/29 05:56:27;;;;;;;24.90;12.00;;;;;;;;;;5007263;28;20116;-71
2022/03/29 05:58:53;;;;;;;24.53;10.23;;;;;;;;;;5013963;28;20038;-71
2022/03/29 06:01:25;;;;;;;24.27;11.70;;;;;;;;;;5021156;28;20026;-77
2022/03/29 06:03:51;;;;;;;;;;;;;;;;;;5011999;28;20064;-73
2022/03/29 06:06:17;;;;;;;16.40;9.80;;;;;;;;;;5015541;28;19914;-74
2022/03/29 06:08:43;;;;;;;20.80;10.77;;;;;;;;;;5027272;28;20029;-70
2022/03/29 06:11:14;;;;;;;25.03;11.23;;;;;;;;;;5003306;28;20031;-71
2022/03/29 06:13:47;;;;;;;21.90;11.47;;;;;;;;;;5012404;28;20050;-73
2022/03/29 06:16:16;;;;;;;20.33;11.07;;;;;;;;;;5016989;28;20513;-72
2022/03/29 06:18:42;;;;;;;34.37;11.93;;;;;;;;;;5029430;28;20480;-74
2022/03/29 06:21:09;;;;;;;24.63;11.97;;;;;;;;;;5019291;28;20034;-74
2022/03/29 06:23:35;;;;;;;29.70;11.23;;;;;;;;;;5008660;28;20720;-73
2022/03/29 06:26:05;;;;;;;27.67;11.63;;;;;;;;;;5010131;28;20375;-74
2022/03/29 06:28:31;;;;;;;24.03;12.37;;;;;;;;;;5029197;28;20551;-74
2022/03/29 06:30:59;;;;;;;25.20;12.47;;;;;;;;;;5020910;28;20038;-72
2022/03/29 06:33:26;;;;;;;26.90;12.20;;;;;;;;;;5002337;28;20097;-71
2022/03/29 06:36:07;;;;;;;31.90;13.23;;;;;;;;;;5025415;28;20103;-71
2022/03/29 06:38:34;;;;;;;25.73;11.77;;;;;;;;;;5007977;28;20030;-74
2022/03/29 06:41:00;;;;;;;23.83;12.47;;;;;;;;;;4987291;28;20048;-70
2022/03/29 06:43:26;;;;;;;28.80;12.63;;;;;;;;;;5021961;28;20077;-74
2022/03/29 06:45:55;;;;;;;24.43;12.37;;;;;;;;;;5002670;28;20033;-73
2022/03/29 06:48:23;;;;;;;23.07;11.77;;;;;;;;;;4998653;28;20559;-74
2022/03/29 06:50:53;;;;;;;23.87;11.57;;;;;;;;;;5000349;28;20044;-72
2022/03/29 06:53:30;;;;;;;24.63;11.73;;;;;;;;;;5013919;28;20030;-73
2022/03/29 06:55:57;;;;;;;32.70;13.00;;;;;;;;;;5009805;28;20041;-73
2022/03/29 06:58:23;;;;;;;21.00;12.20;;;;;;;;;;5001421;28;20428;-73
2022/03/29 07:00:50;;;;;;;23.60;11.52;;;;;;;;;;5001605;28;20586;-74
2022/03/29 07:03:16;;;;;;;19.70;11.20;;;;;;;;;;5000758;28;20401;-73
2022/03/29 07:05:46;;;;;;;24.20;12.33;;;;;;;;;;4997034;28;20429;-72
2022/03/29 07:08:16;;;;;;;23.08;12.15;;;;;;;;;;5014724;28;20033;-74
2022/03/29 07:13:27;;;;;;;32.60;14.33;;;;;;;;;;5002469;28;20045;-73
2022/03/29 07:15:56;;;;;;;26.98;12.32;;;;;;;;;;5000487;28;20136;-71
2022/03/29 07:18:26;;;;;;;26.42;13.27;;;;;;;;;;4997033;28;20168;-73
2022/03/29 07:20:53;;;;;;;27.40;12.35;;;;;;;;;;5010735;28;20034;-73
2022/03/29 07:23:19;;;;;;;24.40;12.60;;;;;;;;;;5002065;28;20050;-73
2022/03/29 07:25:46;;;;;;;21.15;12.20;;;;;;;;;;5003444;28;20044;-73
2022/03/29 07:28:12;;;;;;;25.83;12.68;;;;;;;;;;4999814;28;20034;-73
2022/03/29 07:30:44;;;;;;;26.73;12.13;;;;;;;;;;5004882;28;20121;-75
2022/03/29 07:33:11;;;;;;;31.98;14.88;;;;;;;;;;5003608;28;20747;-75
2022/03/29 07:35:42;;;;;;;32.20;13.40;;;;;;;;;;5004401;28;20072;-73
2022/03/29 07:38:09;;;;;;;28.23;13.80;;;;;;;;;;5018224;28;20065;-74
2022/03/29 07:40:37;;;;;;;34.08;17.10;;;;;;;;;;5003632;28;20498;-73
2022/03/29 07:43:05;;;;;;;28.88;13.95;;;;;;;;;;5010474;28;20037;-75
2022/03/29 07:45:32;;;;;;;27.55;13.98;;;;;;;;;;5006874;28;20030;-76
2022/03/29 07:48:03;;;;;;;30.38;15.45;;;;;;;;;;5015319;28;20056;-73
2022/03/29 07:50:34;;;;;;;25.85;13.05;;;;;;;;;;5013221;28;20030;-74
2022/03/29 07:53:03;;;;;;;33.75;14.57;;;;;;;;;;5007727;28;20473;-72
2022/03/29 07:55:31;;;;;;;31.20;14.45;;;;;;;;;;5001213;28;20050;-73
2022/03/29 07:57:59;;;;;;;33.35;14.45;;;;;;;;;;4995923;28;20433;-74
2022/03/29 08:00:39;;;;;;;35.78;13.50;;;;;;;;;;5006671;28;20041;-74
2022/03/29 08:03:08;;;;;;;31.83;13.77;;;;;;;;;;5003784;28;20397;-74
2022/03/29 08:05:35;;;;;;;29.45;14.80;;;;;;;;;;5005521;28;20058;-73
2022/03/29 08:08:07;;;;;;;26.50;12.85;;;;;;;;;;5004288;28;20490;-73
2022/03/29 08:10:39;;;;;;;28.83;13.95;;;;;;;;;;5008477;28;20029;-74
2022/03/29 08:13:10;;;;;;;29.27;13.68;;;;;;;;;;4996673;28;20037;-73
2022/03/29 08:15:37;;;;;;;28.33;14.43;;;;;;;;;;5016899;28;20076;-74
2022/03/29 08:18:09;;;;;;;43.22;14.80;;;;;;;;;;5015462;28;20037;-73
2022/03/29 08:20:38;;;;;;;30.33;13.63;;;;;;;;;;4987151;28;20180;-74
2022/03/29 08:23:10;;;;;;;29.38;13.02;;;;;;;;;;5016916;28;20450;-73
2022/03/29 08:25:42;;;;;;;32.10;13.50;;;;;;;;;;5000005;28;20057;-74
2022/03/29 08:28:12;;;;;;;26.98;12.70;;;;;;;;;;4999214;28;20368;-74
2022/03/29 08:30:42;;;;;;;27.55;13.32;;;;;;;;;;5014764;28;20036;-73
2022/03/29 08:33:21;;;;;;;29.13;12.88;;;;;;;;;;5000149;28;20498;-74
2022/03/29 08:35:49;;;;;;;33.42;14.75;;;;;;;;;;5003504;28;20030;-74
2022/03/29 08:38:26;;;;;;;26.38;12.95;;;;;;;;;;4997011;28;20425;-75
2022/03/29 08:40:59;;;;;;;29.52;13.30;;;;;;;;;;5005893;28;20088;-74
2022/03/29 08:43:27;;;;;;;30.10;13.55;;;;;;;;;;5017493;28;20132;-73
2022/03/29 08:46:03;;;;;;;30.65;13.13;;;;;;;;;;5001573;28;20478;-74
2022/03/29 08:48:30;;;;;;;27.73;13.85;;;;;;;;;;5005274;28;20034;-74
2022/03/29 08:51:00;;;;;;;27.33;14.25;;;;;;;;;;5001038;28;20109;-71
2022/03/29 08:53:29;;;;;;;34.80;15.25;;;;;;;;;;5018115;28;20026;-72
2022/03/29 08:55:59;;;;;;;32.10;14.52;;;;;;;;;;5002057;28;20105;-73
2022/03/29 08:58:30;;;;;;;58.00;17.70;;;;;;;;;;4999815;28;20030;-74
2022/03/29 09:01:02;;;;;;;32.00;13.93;;;;;;;;;;4995841;28;20572;-75
2022/03/29 09:03:28;;;;;;;32.38;14.85;;;;;;;;;;5006581;28;20060;-73
2022/03/29 09:06:09;;;;;;;31.98;15.43;;;;;;;;;;5003207;28;20097;-73
2022/03/29 09:08:47;;;;;;;29.63;15.52;;;;;;;;;;5007138;28;20032;-74
2022/03/29 09:11:14;;;;;;;31.23;14.75;;;;;;;;;;5002859;28;20073;-73
2022/03/29 09:13:44;;;;;;;29.42;14.27;;;;;;;;;;5010590;28;20021;-76
2022/03/29 09:16:33;;;;;;;34.28;15.10;;;;;;;;;;5004108;28;20034;-73
2022/03/29 09:19:00;;;;;;;26.15;14.90;;;;;;;;;;4997714;28;20041;-77
2022/03/29 09:21:27;;;;;;;35.95;14.60;;;;;;;;;;5002898;28;20049;-69
2022/03/29 09:24:08;;;;;;;29.05;14.50;;;;;;;;;;5000494;28;20087;-73
2022/03/29 09:26:41;;;;;;;27.95;13.73;;;;;;;;;;4998304;28;20034;-74
2022/03/29 09:29:32;;;;;;;30.30;14.73;;;;;;;;;;5000243;28;20061;-74
2022/03/29 09:32:12;;;;;;;27.17;14.00;;;;;;;;;;5017644;28;20041;-76
2022/03/29 09:35:02;;;;;;;29.30;15.00;;;;;;;;;;4997380;28;20060;-74
2022/03/29 09:37:37;;;;;;;27.52;14.68;;;;;;;;;;4990264;28;20030;-76
2022/03/29 09:40:04;;;;;;;33.35;15.45;;;;;;;;;;5019678;28;20091;-74
2022/03/29 09:42:32;;;;;;;27.60;14.15;;;;;;;;;;5004460;28;20034;-74
2022/03/29 09:44:59;;;;;;;26.83;13.63;;;;;;;;;;5001548;28;20032;-74
2022/03/29 09:47:40;;;;;;;34.75;12.85;;;;;;;;;;4996531;28;20026;-73
2022/03/29 09:50:14;;;;;;;31.42;12.77;;;;;;;;;;5003619;28;20032;-72
2022/03/29 09:52:47;;;;;;;23.50;12.60;;;;;;;;;;5005144;28;20147;-72
2022/03/29 09:55:23;;;;;;;23.63;11.68;;;;;;;;;;5001968;28;20717;-73
2022/03/29 09:58:00;;;;;;;22.13;11.77;;;;;;;;;;4998875;28;20037;-74
2022/03/29 10:00:29;;;;;;;25.98;12.48;;;;;;;;;;5019138;28;20029;-73
2022/03/29 10:02:56;;;;;;;28.55;13.43;;;;;;;;;;5003780;28;20545;-74
2022/03/29 10:05:26;;;;;;;27.27;12.82;;;;;;;;;;5004249;28;20108;-72
2022/03/29 10:10:47;;;;;;;26.48;12.23;;;;;;;;;;5003387;28;20087;-75
2022/03/29 10:13:17;;;;;;;26.70;13.07;;;;;;;;;;5006903;28;20048;-73
2022/03/29 10:15:45;;;;;;;35.38;13.55;;;;;;;;;;5001451;28;20112;-73
2022/03/29 10:18:25;;;;;;;30.20;14.25;;;;;;;;;;5014270;28;20033;-74
2022/03/29 10:20:52;;;;;;;24.35;13.43;;;;;;;;;;5002572;28;20034;-74
2022/03/29 10:23:31;;;;;;;27.23;13.90;;;;;;;;;;5006471;28;20033;-73
2022/03/29 10:25:59;;;;;;;27.58;13.38;;;;;;;;;;4986526;28;20561;-76
2022/03/29 10:28:29;;;;;;;25.55;12.70;;;;;;;;;;5013301;28;20037;-77
2022/03/29 10:30:57;;;;;;;26.58;12.88;;;;;;;;;;4998755;28;20029;-73
2022/03/29 10:33:34;;;;;;;26.67;14.25;;;;;;;;;;5003719;28;20116;-76
2022/03/29 10:36:12;;;;;;;32.10;14.65;;;;;;;;;;5000150;28;20045;-78
2022/03/29 10:38:47;;;;;;;24.00;12.95;;;;;;;;;;5001934;28;20136;-75
2022/03/29 10:41:28;;;;;;;29.80;15.38;;;;;;;;;;5005651;28;20477;-75
2022/03/29 10:44:04;;;;;;;27.10;12.55;;;;;;;;;;5006986;28;20026;-77
2022/03/29 10:46:41;;;;;;;24.50;13.75;;;;;;;;;;5019341;28;20145;-74
2022/03/29 10:49:20;;;;;;;25.05;12.82;;;;;;;;;;4996509;28;20044;-78
2022/03/29 10:51:47;;;;;;;28.65;15.13;;;;;;;;;;5001841;28;20030;-76
2022/03/29 10:54:32;;;;;;;26.42;14.00;;;;;;;;;;5017371;28;20025;-76
2022/03/29 10:57:03;;;;;;;32.03;14.05;;;;;;;;;;4998004;28;20080;-72
2022/03/29 10:59:31;;;;;;;29.27;14.27;;;;;;;;;;5005839;28;20820;-74
2022/03/29 11:02:14;;;;;;;29.23;14.82;;;;;;;;;;4994402;28;20133;-77
2022/03/29 11:05:06;;;;;;;24.95;13.25;;;;;;;;;;4999002;28;20032;-74
2022/03/29 11:07:41;;;;;;;27.60;13.65;;;;;;;;;;4999450;28;20342;-74
2022/03/29 11:10:16;;;;;;;28.42;14.10;;;;;;;;;;4988169;28;20042;-75
2022/03/29 11:12:57;;;;;;;29.98;14.32;;;;;;;;;;4999495;28;20229;-74
2022/03/29 11:15:36;;;;;;;26.38;13.77;;;;;;;;;;4987197;28;20076;-75
2022/03/29 11:18:07;;;;;;;28.70;13.88;;;;;;;;;;4997104;28;20037;-73
2022/03/29 11:20:40;;;;;;;29.17;14.43;;;;;;;;;;4998016;28;20029;-76
2022/03/29 11:23:26;;;;;;;24.92;14.05;;;;;;;;;;5005129;28;20041;-73
2022/03/29 11:25:54;;;;;;;28.65;15.00;;;;;;;;;;5000911;28;20038;-76
2022/03/29 11:28:20;;;;;;;27.38;14.98;;;;;;;;;;4997172;28;20034;-73
2022/03/29 11:30:59;;;;;;;28.20;15.77;;;;;;;;;;4999623;28;20049;-73
2022/03/29 11:33:34;;;;;;;26.30;13.68;;;;;;;;;;5000407;28;20121;-73
2022/03/29 11:36:01;;;;;;;27.45;14.57;;;;;;;;;;5003836;28;20032;-72
2022/03/29 11:38:32;;;;;;;28.67;14.65;;;;;;;;;;5004964;28;20160;-75
2022/03/29 11:40:59;;;;;;;28.52;15.43;;;;;;;;;;4997203;28;20276;-76
2022/03/29 11:43:28;;;;;;;29.50;14.98;;;;;;;;;;4999648;28;20611;-74
2022/03/29 11:45:56;;;;;;;31.67;15.25;;;;;;;;;;5000626;28;20097;-74
2022/03/29 11:48:25;;;;;;;27.05;14.65;;;;;;;;;;4990240;28;20034;-74
2022/03/29 11:50:56;;;;;;;28.33;15.02;;;;;;;;;;4990688;28;20036;-73
2022/03/29 11:53:30;;;;;;;28.67;15.30;;;;;;;;;;5013207;28;20357;-76
2022/03/29 11:56:08;;;;;;;34.97;18.58;;;;;;;;;;5010462;28;20177;-75
2022/03/29 11:58:55;;;;;;;27.48;14.98;;;;;;;;;;4995348;28;20065;-74
2022/03/29 12:01:47;;;;;;;33.10;16.42;;;;;;;;;;4999209;28;20045;-75
2022/03/29 12:04:16;;;;;;;;;;;;;;;;;;5000752;28;20059;-74
2022/03/29 12:06:50;;;;;;;29.25;15.25;;;;;;;;;;4993830;28;19921;-75
2022/03/29 12:09:23;;;;;;;31.80;16.33;;;;;;;;;;4994170;28;20055;-73
2022/03/29 12:11:55;;;;;;;32.17;14.93;;;;;;;;;;4999553;28;20557;-74
2022/03/29 12:14:27;;;;;;;29.90;15.73;;;;;;;;;;4998951;28;20050;-75
2022/03/29 12:17:04;;;;;;;32.97;14.90;;;;;;;;;;4967898;28;20039;-75
2022/03/29 12:19:32;;;;;;;28.13;15.20;;;;;;;;;;4996157;28;20049;-76
2022/03/29 12:22:06;;;;;;;33.13;16.73;;;;;;;;;;5002228;28;20045;-72
2022/03/29 12:24:54;;;;;;;33.53;16.75;;;;;;;;;;4996649;28;20041;-74
2022/03/29 12:27:24;;;;;;;30.08;15.10;;;;;;;;;;5000286;28;20037;-75
2022/03/29 12:30:02;;;;;;;29.25;16.15;;;;;;;;;;4996522;28;20025;-74
2022/03/29 12:32:28;;;;;;;32.78;15.32;;;;;;;;;;5023205;28;20525;-74
2022/03/29 12:35:03;;;;;;;31.52;16.17;;;;;;;;;;5000461;28;20065;-73
2022/03/29 12:37:30;;;;;;;32.63;15.43;;;;;;;;;;5004904;28;20057;-76
2022/03/29 12:40:09;;;;;;;28.00;15.30;;;;;;;;;;5003227;28;20026;-76
2022/03/29 12:42:35;;;;;;;27.73;15.30;;;;;;;;;;5013943;28;20072;-76
2022/03/29 12:45:03;;;;;;;34.60;15.63;;;;;;;;;;5016686;28;20037;-73
2022/03/29 12:47:36;;;;;;;34.25;15.80;;;;;;;;;;5006852;28;20054;-75
2022/03/29 12:50:04;;;;;;;29.05;14.85;;;;;;;;;;5001222;28;20041;-76
2022/03/29 12:52:37;;;;;;;28.92;15.07;;;;;;;;;;5007436;28;20040;-77
2022/03/29 12:55:03;;;;;;;26.98;14.60;;;;;;;;;;5000102;28;20061;-77
2022/03/29 12:57:39;;;;;;;27.83;15.48;;;;;;;;;;5003454;28;20038;-77
2022/03/29 13:00:14;;;;;;;28.63;14.48;;;;;;;;;;4998333;28;21968;-77
2022/03/29 13:02:48;;;;;;;29.30;14.50;;;;;;;;;;4997894;28;20056;-76
2022/03/29 13:05:18;;;;;;;31.17;15.88;;;;;;;;;;5001746;28;20109;-75
2022/03/29 13:08:04;;;;;;;28.77;15.43;;;;;;;;;;5016031;28;20560;-75
2022/03/29 13:10:40;;;;;;;26.95;14.55;;;;;;;;;;5012407;28;20454;-76
2022/03/29 13:13:26;;;;;;;28.65;15.38;;;;;;;;;;5023026;28;20080;-76
2022/03/29 13:16:00;;;;;;;31.92;14.70;;;;;;;;;;5026935;28;20133;-75
2022/03/29 13:18:31;;;;;;;27.70;14.80;;;;;;;;;;5012388;28;20066;-75
2022/03/29 13:21:22;;;;;;;29.77;15.15;;;;;;;;;;5016049;28;20040;-74
2022/03/29 13:23:51;;;;;;;31.40;16.08;;;;;;;;;;5008987;28;20565;-75
2022/03/29 13:26:28;;;;;;;32.28;15.88;;;;;;;;;;5026118;28;20022;-76
2022/03/29 13:28:58;;;;;;;31.75;15.80;;;;;;;;;;5018120;28;20042;-76
2022/03/29 13:31:28;;;;;;;25.83;16.00;;;;;;;;;;5010377;28;20124;-75
2022/03/29 13:34:07;;;;;;;29.85;16.45;;;;;;;;;;5021108;28;20537;-76
2022/03/29 13:36:33;;;;;;;45.72;16.40;;;;;;;;;;4999583;28;20113;-75
2022/03/29 13:39:00;;;;;;;30.52;15.25;;;;;;;;;;5003578;28;20180;-76
2022/03/29 13:41:26;;;;;;;25.90;14.25;;;;;;;;;;5003538;28;20079;-75
2022/03/29 13:43:56;;;;;;;29.98;15.73;;;;;;;;;;5011075;28;20487;-74
2022/03/29 13:46:25;;;;;;;33.30;16.33;;;;;;;;;;5018143;28;20471;-76
2022/03/29 13:48:53;;;;;;;29.52;15.48;;;;;;;;;;5009845;28;20030;-75
2022/03/29 13:51:20;;;;;;;30.08;14.23;;;;;;;;;;5024389;28;20470;-76
2022/03/29 13:53:49;;;;;;;31.52;15.98;;;;;;;;;;5001202;28;20076;-75
2022/03/29 13:56:16;;;;;;;27.50;14.68;;;;;;;;;;5008585;28;20026;-75
2022/03/29 13:58:48;;;;;;;34.97;17.00;;;;;;;;;;5008873;28;20030;-76
2022/03/29 14:01:17;;;;;;;30.38;15.27;;;;;;;;;;5007872;28;20493;-75
2022/03/29 14:03:45;;;;;;;30.90;17.60;;;;;;;;;;5008043;28;20088;-75
2022/03/29 14:06:12;;;;;;;27.52;14.00;;;;;;;;;;5004124;28;20021;-76
2022/03/29 14:08:38;;;;;;;29.77;14.52;;;;;;;;;;5002993;28;20029;-76
2022/03/29 14:11:06;;;;;;;23.98;14.02;;;;;;;;;;5016997;28;20516;-75
2022/03/29 14:13:32;;;;;;;21.40;11.32;;;;;;;;;;5007943;28;20052;-76
2022/03/29 14:16:00;;;;;;;22.02;11.38;;;;;;;;;;5005515;28;20477;-76
2022/03/29 14:18:26;;;;;;;19.35;11.07;;;;;;;;;;5007606;28;20613;-75
2022/03/29 14:20:54;;;;;;;23.10;10.00;;;;;;;;;;5007134;28;20105;-75
2022/03/29 14:23:20;;;;;;;17.33;8.45;;;;;;;;;;5005919;28;20045;-74
2022/03/29 14:25:47;;;;;;;17.75;9.40;;;;;;;;;;5019725;28;20022;-76
2022/03/29 14:28:14;;;;;;;17.38;8.57;;;;;;;;;;5003894;28;20033;-74
2022/03/29 14:30:42;;;;;;;18.77;8.63;;;;;;;;;;5009461;28;20029;-74
2022/03/29 14:33:08;;;;;;;19.55;8.63;;;;;;;;;;5017142;28;20508;-74
2022/03/29 14:35:35;;;;;;;18.45;8.30;;;;;;;;;;5022579;28;20033;-74
2022/03/29 14:38:01;;;;;;;15.00;8.30;;;;;;;;;;5000083;28;20029;-77
2022/03/29 14:40:29;;;;;;;22.02;8.35;;;;;;;;;;5003892;28;20506;-75
2022/03/29 14:42:56;;;;;;;19.13;8.55;;;;;;;;;;5014969;28;20171;-75